Time;durP1;ratioP1;P1;durP2;ratioP2;P2;SDS_P1;SDS_P2;PMS_P1;PMS_P2;Temp;Humidity;BMP_temperature;BMP_pressure;BME280_temperature;BME280_humidity;BME280_pressure;Samples;Min_cycle;Max_cycle;Signal;HPM_P1;HPM_P2
2022/08/15 00:01:19;;;;;;;70.97;7.80;;;25.50;1.00;;;;;;5061469;28;20451;-85
2022/08/15 00:03:49;;;;;;;68.43;7.20;;;25.50;1.00;;;;;;5062003;28;20439;-85
2022/08/15 00:06:21;;;;;;;69.13;7.30;;;25.50;1.00;;;;;;5062001;28;20423;-85
2022/08/15 00:08:55;;;;;;;69.40;7.37;;;25.50;1.00;;;;;;5062469;28;20368;-85
2022/08/15 00:11:27;;;;;;;71.27;7.07;;;25.50;1.00;;;;;;5044390;28;20408;-85
2022/08/15 00:13:57;;;;;;;69.70;6.80;;;25.50;1.00;;;;;;5061807;28;20390;-85
2022/08/15 00:16:22;;;;;;;69.97;6.50;;;25.40;1.00;;;;;;5061928;28;20426;-85
2022/08/15 00:18:49;;;;;;;69.30;6.77;;;25.40;1.00;;;;;;5062179;28;20958;-85
2022/08/15 00:21:17;;;;;;;70.43;7.13;;;25.40;1.00;;;;;;5062900;28;20165;-85
2022/08/15 00:23:43;;;;;;;72.30;6.70;;;25.40;1.00;;;;;;5044498;28;20450;-85
2022/08/15 00:26:10;;;;;;;71.30;7.20;;;25.40;1.00;;;;;;5043747;28;20790;-84
2022/08/15 00:28:36;;;;;;;70.37;7.53;;;25.30;1.00;;;;;;5043384;28;20403;-85
2022/08/15 00:31:05;;;;;;;70.30;6.87;;;25.30;1.00;;;;;;5062611;28;20399;-85
2022/08/15 00:33:32;;;;;;;68.87;6.30;;;25.30;1.00;;;;;;5061676;28;20402;-85
2022/08/15 00:35:58;;;;;;;70.77;7.30;;;25.30;1.00;;;;;;5061584;28;20434;-85
2022/08/15 00:38:26;;;;;;;69.00;7.20;;;25.20;1.00;;;;;;5044124;28;20406;-85
2022/08/15 00:43:56;;;;;;;71.03;7.20;;;25.30;1.00;;;;;;5061412;28;20433;-85
2022/08/15 00:46:25;;;;;;;70.13;7.43;;;25.20;1.00;;;;;;5061719;28;20414;-84
2022/08/15 00:48:51;;;;;;;68.27;6.50;;;25.30;1.00;;;;;;5044457;28;20410;-85
2022/08/15 00:51:29;;;;;;;69.70;6.80;;;25.10;1.00;;;;;;5044308;28;20494;-85
2022/08/15 00:54:19;;;;;;;74.00;7.50;;;25.10;1.00;;;;;;5061533;28;20388;-85
2022/08/15 00:57:00;;;;;;;71.60;7.23;;;25.00;1.00;;;;;;5060571;28;20422;-85
2022/08/15 00:59:32;;;;;;;69.97;6.73;;;25.00;1.00;;;;;;5041742;28;20760;-85
2022/08/15 01:02:01;;;;;;;71.80;7.20;;;25.00;1.00;;;;;;5059344;28;20469;-85
2022/08/15 01:04:27;;;;;;;73.80;7.10;;;25.00;1.00;;;;;;5059729;28;20412;-85
2022/08/15 01:06:58;;;;;;;71.77;7.37;;;25.00;1.00;;;;;;5060008;28;20416;-85
2022/08/15 01:09:25;;;;;;;68.30;6.63;;;25.10;1.00;;;;;;5042059;28;20399;-85
2022/08/15 01:11:57;;;;;;;70.50;5.83;;;25.10;1.00;;;;;;5042488;28;20413;-85
2022/08/15 01:14:24;;;;;;;68.47;7.03;;;25.20;1.00;;;;;;5059355;28;20391;-85
2022/08/15 01:16:51;;;;;;;68.97;6.20;;;25.10;1.00;;;;;;5059145;28;20426;-85
2022/08/15 01:19:19;;;;;;;70.57;6.90;;;25.10;1.00;;;;;;5042073;28;20414;-85
2022/08/15 01:22:08;;;;;;;71.30;6.50;;;25.10;1.00;;;;;;5059305;28;20894;-85
2022/08/15 01:24:50;;;;;;;69.23;6.60;;;25.10;1.00;;;;;;5061795;28;20422;-85
2022/08/15 01:27:21;;;;;;;66.77;5.30;;;25.00;1.00;;;;;;5043014;28;20434;-85
2022/08/15 01:29:50;;;;;;;70.60;6.60;;;25.00;1.00;;;;;;5061369;28;20893;-84
2022/08/15 01:32:15;;;;;;;68.27;6.43;;;25.00;1.00;;;;;;5044017;28;20427;-84
2022/08/15 01:34:41;;;;;;;70.17;6.60;;;25.00;1.00;;;;;;5042913;28;20410;-85
2022/08/15 01:37:07;;;;;;;70.50;6.00;;;25.00;1.00;;;;;;5043274;28;20278;-85
2022/08/15 01:39:52;;;;;;;73.80;5.93;;;24.90;1.00;;;;;;5061375;28;20470;-85
2022/08/15 01:42:29;;;;;;;66.70;5.40;;;25.00;1.00;;;;;;5060925;28;20444;-85
2022/08/15 01:45:00;;;;;;;68.60;5.10;;;25.00;1.00;;;;;;5043990;28;20464;-84
2022/08/15 01:47:41;;;;;;;68.53;5.47;;;24.90;1.00;;;;;;5043152;28;20957;-84
2022/08/15 01:50:18;;;;;;;68.87;6.20;;;24.90;1.00;;;;;;5061815;28;20461;-85
2022/08/15 01:52:51;;;;;;;68.07;5.20;;;24.90;1.00;;;;;;5060903;28;20758;-85
2022/08/15 01:55:20;;;;;;;69.87;7.00;;;24.90;1.00;;;;;;5064145;28;20789;-85
2022/08/15 01:57:46;;;;;;;69.07;6.63;;;24.90;1.00;;;;;;5047294;28;20437;-84
2022/08/15 02:00:17;;;;;;;68.87;6.27;;;24.90;1.00;;;;;;5047515;28;20428;-84
2022/08/15 02:02:42;;;;;;;75.77;7.00;;;24.80;1.00;;;;;;5047158;28;20183;-85
2022/08/15 02:05:08;;;;;;;67.67;5.97;;;24.80;1.00;;;;;;5065115;28;20398;-85
2022/08/15 02:07:34;;;;;;;70.13;7.00;;;24.70;1.00;;;;;;5047234;28;20190;-85
2022/08/15 02:10:00;;;;;;;72.57;6.97;;;24.50;1.00;;;;;;5047118;28;20172;-85
2022/08/15 02:12:34;;;;;;;69.43;7.30;;;24.40;1.00;;;;;;5066019;28;20500;-85
2022/08/15 02:15:03;;;;;;;71.20;7.57;;;24.50;1.00;;;;;;5064679;28;20418;-84
2022/08/15 02:17:29;;;;;;;72.30;6.97;;;24.50;1.00;;;;;;5064964;28;20421;-85
2022/08/15 02:19:54;;;;;;;69.77;7.80;;;24.60;1.00;;;;;;5064739;28;20452;-85
2022/08/15 02:22:23;;;;;;;72.60;7.60;;;24.60;1.00;;;;;;5064524;28;20178;-85
2022/08/15 02:24:49;;;;;;;70.47;7.23;;;24.60;1.00;;;;;;5064542;28;20172;-85
2022/08/15 02:27:15;;;;;;;72.30;6.67;;;24.60;1.00;;;;;;5064432;28;20434;-85
2022/08/15 02:29:44;;;;;;;68.20;7.30;;;24.60;1.00;;;;;;5064646;28;20181;-85
2022/08/15 02:32:16;;;;;;;68.80;7.30;;;24.60;1.00;;;;;;5065439;28;20410;-84
2022/08/15 02:34:44;;;;;;;69.27;6.70;;;24.60;1.00;;;;;;5046205;28;20424;-85
2022/08/15 02:37:18;;;;;;;71.90;7.83;;;24.60;1.00;;;;;;5063752;28;20517;-85
2022/08/15 02:39:46;;;;;;;69.70;7.33;;;24.60;1.00;;;;;;5064548;28;20394;-84
2022/08/15 02:42:12;;;;;;;69.07;7.90;;;24.60;1.00;;;;;;5063470;28;20417;-84
2022/08/15 02:44:38;;;;;;;68.37;6.77;;;24.60;1.00;;;;;;5063982;28;20838;-85
2022/08/15 02:47:04;;;;;;;67.80;7.00;;;24.60;1.00;;;;;;5063881;28;20427;-85
2022/08/15 02:49:31;;;;;;;71.70;7.40;;;24.60;1.00;;;;;;5064259;28;20172;-85
2022/08/15 02:51:57;;;;;;;69.77;7.67;;;24.60;1.00;;;;;;5046642;28;20172;-85
2022/08/15 02:54:26;;;;;;;68.90;7.63;;;24.60;1.00;;;;;;5064258;28;20474;-84
2022/08/15 02:56:52;;;;;;;73.23;7.00;;;24.60;1.00;;;;;;5064280;28;20429;-84
2022/08/15 02:59:18;;;;;;;69.00;7.47;;;24.60;1.00;;;;;;5045977;28;20457;-85
2022/08/15 03:01:43;;;;;;;69.23;7.83;;;24.60;1.00;;;;;;5046235;28;20398;-85
2022/08/15 03:04:16;;;;;;;69.00;7.63;;;24.60;1.00;;;;;;5064115;28;20196;-85
2022/08/15 03:06:44;;;;;;;69.90;7.47;;;24.60;1.00;;;;;;5062739;28;20210;-85
2022/08/15 03:09:11;;;;;;;69.27;7.93;;;24.60;1.00;;;;;;5063672;28;20403;-84
2022/08/15 03:14:07;;;;;;;68.90;8.20;;;24.60;1.00;;;;;;5061910;28;20466;-85
2022/08/15 03:16:43;;;;;;;69.60;8.40;;;24.50;1.00;;;;;;5064154;28;20421;-84
2022/08/15 03:19:18;;;;;;;69.17;8.70;;;24.50;1.00;;;;;;5063982;28;20462;-85
2022/08/15 03:21:48;;;;;;;71.47;7.33;;;24.50;1.00;;;;;;5064532;28;20381;-84
2022/08/15 03:24:15;;;;;;;70.20;8.57;;;24.50;1.00;;;;;;5045169;28;20477;-84
2022/08/15 03:26:46;;;;;;;68.50;7.80;;;24.50;1.00;;;;;;5130942;22;20928;-85
2022/08/15 03:29:18;;;;;;;70.93;8.93;;;24.50;1.00;;;;;;5078310;28;20947;-83
2022/08/15 03:31:50;;;;;;;70.17;8.20;;;24.50;1.00;;;;;;5059254;28;20436;-84
2022/08/15 03:34:19;;;;;;;69.60;7.97;;;24.40;1.00;;;;;;5077518;28;20845;-83
2022/08/15 03:36:46;;;;;;;67.60;6.67;;;24.40;1.00;;;;;;5077078;28;20436;-83
2022/08/15 03:39:13;;;;;;;69.50;8.37;;;24.40;1.00;;;;;;5061238;28;20405;-84
2022/08/15 03:41:40;;;;;;;69.60;7.30;;;24.40;1.00;;;;;;5077083;28;20397;-84
2022/08/15 03:44:06;;;;;;;71.47;7.90;;;24.40;1.00;;;;;;5061150;28;20450;-84
2022/08/15 03:46:32;;;;;;;69.87;6.90;;;24.40;1.00;;;;;;5060896;28;20417;-83
2022/08/15 03:48:58;;;;;;;69.90;7.43;;;24.40;1.00;;;;;;5079309;28;20408;-84
2022/08/15 03:51:27;;;;;;;67.80;6.77;;;24.40;1.00;;;;;;5078574;28;20155;-84
2022/08/15 03:53:59;;;;;;;67.10;6.40;;;24.30;1.00;;;;;;5079025;28;20804;-84
2022/08/15 03:56:28;;;;;;;68.37;5.93;;;24.30;1.00;;;;;;5076797;28;20455;-83
2022/08/15 03:58:55;;;;;;;66.97;6.77;;;24.30;1.00;;;;;;5058762;28;20952;-84
2022/08/15 04:01:24;;;;;;;68.50;6.80;;;24.40;1.00;;;;;;5078292;28;20739;-84
2022/08/15 04:03:51;;;;;;;68.47;6.70;;;24.30;1.00;;;;;;5077940;28;20494;-84
2022/08/15 04:06:21;;;;;;;78.47;6.03;;;24.40;1.00;;;;;;5078254;28;20512;-83
2022/08/15 04:08:48;;;;;;;68.07;6.00;;;24.40;1.00;;;;;;5078091;28;20479;-83
2022/08/15 04:11:16;;;;;;;70.43;5.60;;;24.30;1.00;;;;;;5077693;28;20488;-84
2022/08/15 04:13:43;;;;;;;67.17;6.33;;;24.30;1.00;;;;;;5077535;28;20412;-84
2022/08/15 04:16:09;;;;;;;68.80;5.70;;;24.30;1.00;;;;;;5077840;28;20433;-84
2022/08/15 04:18:37;;;;;;;70.63;5.57;;;24.30;1.00;;;;;;5077702;28;20406;-84
2022/08/15 04:21:07;;;;;;;67.30;5.10;;;24.20;1.00;;;;;;5077053;28;20411;-84
2022/08/15 04:23:34;;;;;;;68.23;5.00;;;24.20;1.00;;;;;;5076020;28;20452;-83
2022/08/15 04:26:00;;;;;;;67.47;5.47;;;24.20;1.00;;;;;;5075884;28;20957;-83
2022/08/15 04:28:30;;;;;;;67.87;4.77;;;24.30;1.00;;;;;;5075939;28;20811;-83
2022/08/15 04:30:58;;;;;;;67.20;4.47;;;24.30;1.00;;;;;;5077160;28;20423;-83
2022/08/15 04:33:29;;;;;;;68.47;4.70;;;24.20;1.00;;;;;;5077505;28;20408;-84
2022/08/15 04:35:59;;;;;;;67.70;4.90;;;24.20;1.00;;;;;;5077680;28;20448;-83
2022/08/15 04:38:25;;;;;;;67.93;4.30;;;24.10;1.00;;;;;;5059834;28;20417;-84
2022/08/15 04:40:57;;;;;;;66.57;4.17;;;24.10;1.00;;;;;;5077340;28;20811;-83
2022/08/15 04:43:23;;;;;;;68.07;4.47;;;24.20;1.00;;;;;;5077703;28;20433;-83
2022/08/15 04:45:50;;;;;;;67.17;4.00;;;24.10;1.00;;;;;;5077572;28;20402;-83
2022/08/15 04:48:16;;;;;;;68.60;4.90;;;24.20;1.00;;;;;;5059710;28;20405;-84
2022/08/15 04:50:45;;;;;;;66.80;4.00;;;24.20;1.00;;;;;;5077370;28;20405;-83
2022/08/15 04:53:12;;;;;;;67.00;4.50;;;24.10;1.00;;;;;;5077948;28;20431;-84
2022/08/15 04:55:43;;;;;;;67.20;4.93;;;24.20;1.00;;;;;;5059653;28;20421;-83
2022/08/15 04:58:12;;;;;;;67.00;4.40;;;24.10;1.00;;;;;;5075617;28;20784;-83
2022/08/15 05:00:40;;;;;;;68.07;4.57;;;24.10;1.00;;;;;;5059641;28;20408;-84
2022/08/15 05:03:12;;;;;;;67.93;4.17;;;24.00;1.00;;;;;;5059185;28;20859;-83
2022/08/15 05:05:52;;;;;;;70.17;4.63;;;24.10;1.00;;;;;;5077874;28;20754;-84
2022/08/15 05:08:19;;;;;;;67.60;4.50;;;24.10;1.00;;;;;;5077946;28;20388;-84
2022/08/15 05:10:51;;;;;;;71.30;5.37;;;24.20;1.00;;;;;;5077363;28;20754;-84
2022/08/15 05:13:22;;;;;;;68.47;4.10;;;24.20;1.00;;;;;;5059787;28;20400;-84
2022/08/15 05:15:48;;;;;;;72.17;4.60;;;24.20;1.00;;;;;;5059371;28;20989;-84
2022/08/15 05:18:14;;;;;;;67.63;4.27;;;24.20;1.00;;;;;;5059416;28;20411;-84
2022/08/15 05:20:41;;;;;;;74.03;4.93;;;24.20;1.00;;;;;;5077539;28;20478;-84
2022/08/15 05:23:11;;;;;;;68.30;4.33;;;24.20;1.00;;;;;;5059590;28;20492;-84
2022/08/15 05:25:39;;;;;;;67.87;4.07;;;24.30;1.00;;;;;;5077652;28;20399;-83
2022/08/15 05:28:06;;;;;;;68.67;4.10;;;24.30;1.00;;;;;;5076977;28;20417;-84
2022/08/15 05:30:32;;;;;;;68.07;4.23;;;24.40;1.00;;;;;;5075964;28;20412;-84
2022/08/15 05:33:04;;;;;;;66.47;3.80;;;24.30;1.00;;;;;;5059074;28;20415;-84
2022/08/15 05:35:30;;;;;;;71.10;4.10;;;24.40;1.00;;;;;;5077485;28;20399;-84
2022/08/15 05:38:00;;;;;;;68.90;3.83;;;24.40;1.00;;;;;;5077750;28;20404;-84
2022/08/15 05:40:29;;;;;;;68.00;4.23;;;24.40;1.00;;;;;;5077108;28;20491;-84
2022/08/15 05:43:11;;;;;;;69.00;3.90;;;24.40;1.00;;;;;;5076612;28;20445;-84
2022/08/15 05:45:52;;;;;;;69.13;4.33;;;24.40;1.00;;;;;;5057241;28;20488;-83
2022/08/15 05:48:26;;;;;;;67.50;4.00;;;24.50;1.00;;;;;;5059051;28;20397;-84
2022/08/15 05:51:08;;;;;;;68.23;4.30;;;24.50;1.00;;;;;;5059643;28;20420;-83
2022/08/15 05:53:53;;;;;;;67.20;3.43;;;24.60;1.00;;;;;;5059130;28;20401;-84
2022/08/15 05:57:04;;;;;;;68.33;3.80;;;24.60;1.00;;;;;;5077272;28;20413;-83
2022/08/15 05:59:46;;;;;;;69.33;4.60;;;24.70;1.00;;;;;;5059351;28;20824;-84
2022/08/15 06:02:31;;;;;;;72.40;4.30;;;24.80;1.00;;;;;;5084981;28;20412;-84
2022/08/15 06:05:03;;;;;;;69.87;4.40;;;24.80;1.00;;;;;;5083389;28;20411;-84
2022/08/15 06:07:30;;;;;;;68.50;4.77;;;24.90;1.00;;;;;;5079284;28;20437;-83
2022/08/15 06:10:05;;;;;;;70.37;5.23;;;25.00;1.00;;;;;;5079578;28;20453;-83
2022/08/15 06:12:40;;;;;;;69.97;5.07;;;25.10;1.00;;;;;;5079743;28;20405;-83
2022/08/15 06:15:20;;;;;;;68.87;4.33;;;25.10;1.00;;;;;;5078648;28;20449;-83
2022/08/15 06:17:54;;;;;;;72.47;5.03;;;25.10;1.00;;;;;;5078929;28;20952;-84
2022/08/15 06:20:25;;;;;;;70.13;5.80;;;25.20;1.00;;;;;;5079648;28;20400;-83
2022/08/15 06:23:07;;;;;;;71.27;5.60;;;25.30;1.00;;;;;;5079177;28;20437;-84
2022/08/15 06:25:59;;;;;;;71.20;5.23;;;25.30;1.00;;;;;;5079070;28;20394;-83
2022/08/15 06:28:52;;;;;;;68.00;5.00;;;25.40;1.00;;;;;;5060273;28;20449;-84
2022/08/15 06:31:31;;;;;;;68.57;4.53;;;25.30;1.00;;;;;;5078646;28;20391;-84
2022/08/15 06:34:00;;;;;;;68.40;4.60;;;25.30;1.00;;;;;;5060741;28;20429;-83
2022/08/15 06:36:41;;;;;;;70.97;5.13;;;25.30;1.00;;;;;;5078320;28;20430;-84
2022/08/15 06:39:23;;;;;;;68.80;6.33;;;25.40;1.00;;;;;;5079444;28;20408;-84
2022/08/15 06:42:13;;;;;;;71.10;6.40;;;25.40;1.00;;;;;;5082672;28;20861;-84
2022/08/15 06:44:39;;;;;;;70.23;5.80;;;25.30;1.00;;;;;;5065201;28;20405;-84
2022/08/15 06:47:07;;;;;;;70.17;5.30;;;25.30;1.00;;;;;;5081707;28;20421;-84
2022/08/15 06:49:47;;;;;;;68.67;4.80;;;25.30;1.00;;;;;;5064330;28;20423;-84
2022/08/15 06:52:16;;;;;;;69.53;5.07;;;25.10;1.00;;;;;;5063873;28;20395;-84
2022/08/15 06:54:42;;;;;;;69.40;6.10;;;25.20;1.00;;;;;;5063698;28;20402;-84
2022/08/15 06:57:31;;;;;;;70.73;6.93;;;25.30;1.00;;;;;;5082640;28;20474;-84
2022/08/15 07:00:03;;;;;;;70.30;6.47;;;25.30;1.00;;;;;;5064298;28;20198;-84
2022/08/15 07:02:43;;;;;;;71.97;6.50;;;25.40;1.00;;;;;;5082495;28;20412;-84
2022/08/15 07:05:31;;;;;;;68.90;5.07;;;25.40;1.00;;;;;;5064073;28;20456;-83
2022/08/15 07:08:03;;;;;;;67.97;6.60;;;25.40;1.00;;;;;;5078143;28;20390;-83
2022/08/15 07:10:50;;;;;;;72.90;6.17;;;25.60;1.00;;;;;;5064571;28;20402;-83
2022/08/15 07:13:25;;;;;;;69.60;5.50;;;25.60;1.00;;;;;;5082424;28;20387;-83
2022/08/15 07:16:32;;;;;;;74.50;6.53;;;25.50;1.00;;;;;;5064308;28;20990;-83
2022/08/15 07:19:01;;;;;;;72.00;6.30;;;25.60;1.00;;;;;;5020916;28;20471;-84
2022/08/15 07:21:26;;;;;;;71.10;6.13;;;25.70;1.00;;;;;;5072546;28;20911;-83
2022/08/15 07:24:24;;;;;;;68.77;5.83;;;25.70;1.00;;;;;;5078323;28;20525;-81
2022/08/15 07:27:04;;;;;;;73.30;6.57;;;25.70;1.00;;;;;;5081719;28;20194;-83
2022/08/15 07:29:32;;;;;;;67.03;5.37;;;25.70;1.00;;;;;;5083291;28;20430;-83
2022/08/15 07:32:21;;;;;;;69.40;6.10;;;25.60;1.00;;;;;;5065115;28;20456;-84
2022/08/15 07:34:56;;;;;;;73.60;6.17;;;25.60;1.00;;;;;;5082912;28;20395;-84
2022/08/15 07:37:23;;;;;;;68.83;6.33;;;25.50;1.00;;;;;;5064310;28;20433;-83
2022/08/15 07:39:59;;;;;;;69.77;6.00;;;25.60;1.00;;;;;;5082752;28;20432;-82
2022/08/15 07:42:24;;;;;;;68.87;5.73;;;25.60;1.00;;;;;;5063835;28;20420;-82
2022/08/15 07:44:57;;;;;;;72.77;6.00;;;25.60;1.00;;;;;;5082205;28;20492;-82
2022/08/15 07:47:32;;;;;;;72.63;5.87;;;25.60;1.00;;;;;;5082945;28;20183;-83
2022/08/15 07:50:01;;;;;;;72.27;6.10;;;25.60;1.00;;;;;;5066531;28;20424;-83
2022/08/15 07:52:27;;;;;;;72.27;6.37;;;25.60;1.00;;;;;;5082540;28;20409;-83
2022/08/15 07:55:17;;;;;;;68.97;5.60;;;25.70;1.00;;;;;;5084910;28;20414;-83
2022/08/15 07:58:05;;;;;;;67.17;5.20;;;25.60;1.00;;;;;;5080910;28;20433;-82
2022/08/15 08:00:34;;;;;;;70.13;5.30;;;25.70;1.00;;;;;;5060581;28;20916;-83
2022/08/15 08:03:21;;;;;;;72.00;5.93;;;25.70;1.00;;;;;;5067044;28;20461;-83
2022/08/15 08:05:59;;;;;;;72.50;5.70;;;25.70;1.00;;;;;;5078577;28;20407;-82
2022/08/15 08:08:50;;;;;;;68.57;5.30;;;25.70;1.00;;;;;;5083936;28;20440;-83
2022/08/15 08:11:22;;;;;;;66.47;5.03;;;25.70;1.00;;;;;;5083901;28;20456;-83
2022/08/15 08:14:04;;;;;;;68.10;5.57;;;25.80;1.00;;;;;;5083776;28;20405;-83
2022/08/15 08:16:42;;;;;;;69.47;5.37;;;25.80;1.00;;;;;;5084745;28;20429;-83
2022/08/15 08:19:29;;;;;;;72.20;5.57;;;25.80;1.00;;;;;;5066774;28;20402;-83
2022/08/15 08:22:02;;;;;;;68.13;5.93;;;25.80;1.00;;;;;;5067421;28;20508;-83
2022/08/15 08:24:30;;;;;;;66.27;5.00;;;25.80;1.00;;;;;;5084184;28;20449;-83
2022/08/15 08:27:12;;;;;;;67.30;5.50;;;25.80;1.00;;;;;;5067096;28;20465;-82
2022/08/15 08:30:00;;;;;;;72.53;6.23;;;25.80;1.00;;;;;;5067105;28;20407;-82
2022/08/15 08:32:56;;;;;;;69.60;6.03;;;25.80;1.00;;;;;;5066385;28;20501;-82
2022/08/15 08:35:31;;;;;;;70.70;6.10;;;25.80;1.00;;;;;;5065990;28;20402;-83
2022/08/15 08:38:07;;;;;;;71.80;6.30;;;25.80;1.00;;;;;;5066202;28;20477;-83
2022/08/15 08:41:34;;;;;;;66.37;5.20;;;25.90;1.00;;;;;;5065604;28;20465;-82
2022/08/15 08:44:23;;;;;;;67.50;5.17;;;26.00;1.00;;;;;;5082913;28;20446;-83
2022/08/15 08:47:16;;;;;;;68.70;5.97;;;25.90;1.00;;;;;;5081329;28;20763;-83
2022/08/15 08:49:53;;;;;;;69.10;6.70;;;25.70;1.00;;;;;;5063867;28;20398;-83
2022/08/15 08:52:41;;;;;;;71.50;6.20;;;25.60;1.00;;;;;;5063766;28;20447;-83
2022/08/15 08:55:21;;;;;;;69.30;6.50;;;25.50;1.00;;;;;;5080432;28;20454;-83
2022/08/15 08:57:53;;;;;;;68.87;5.87;;;25.40;1.00;;;;;;5081618;28;20429;-83
2022/08/15 09:00:22;;;;;;;68.47;5.83;;;25.50;1.00;;;;;;5081957;28;20387;-83
2022/08/15 09:02:52;;;;;;;67.30;5.60;;;25.60;1.00;;;;;;5081482;28;20450;-83
2022/08/15 09:05:33;;;;;;;69.43;6.23;;;25.60;1.00;;;;;;5078775;28;20438;-82
2022/08/15 09:08:07;;;;;;;67.60;5.57;;;25.80;1.00;;;;;;5080058;28;20413;-81
2022/08/15 09:10:36;;;;;;;70.47;6.00;;;25.90;1.00;;;;;;5077231;28;20407;-82
2022/08/15 09:15:53;;;;;;;68.37;4.50;;;26.00;1.00;;;;;;5077374;28;20390;-82
2022/08/15 09:18:29;;;;;;;67.73;5.53;;;26.10;1.00;;;;;;5077292;28;20923;-82
2022/08/15 09:20:56;;;;;;;66.07;4.47;;;25.90;1.00;;;;;;5061674;28;20418;-82
2022/08/15 09:23:24;;;;;;;68.20;5.03;;;26.10;1.00;;;;;;5060879;28;20458;-82
2022/08/15 09:26:09;;;;;;;67.43;6.70;;;26.10;1.00;;;;;;5076101;28;20911;-82
2022/08/15 09:28:39;;;;;;;68.37;6.27;;;26.00;1.00;;;;;;5106821;23;20487;-83
2022/08/15 09:31:18;;;;;;;69.27;5.50;;;26.10;1.00;;;;;;5038832;28;20400;-82
2022/08/15 09:34:13;;;;;;;70.37;5.60;;;26.20;1.00;;;;;;5039429;28;20384;-82
2022/08/15 09:36:57;;;;;;;67.77;5.60;;;26.30;1.00;;;;;;5030614;28;20467;-82
2022/08/15 09:39:44;;;;;;;66.30;6.17;;;26.20;1.00;;;;;;5039052;28;20381;-82
2022/08/15 09:42:40;;;;;;;68.40;5.57;;;26.20;1.00;;;;;;5038967;28;20380;-83
2022/08/15 09:45:39;;;;;;;69.03;5.40;;;26.30;1.00;;;;;;5037748;28;20392;-82
2022/08/15 09:48:34;;;;;;;67.73;4.50;;;26.40;1.00;;;;;;5038142;28;20455;-83
2022/08/15 09:51:28;;;;;;;66.80;4.33;;;26.40;1.00;;;;;;5037824;28;20396;-83
2022/08/15 09:54:18;;;;;;;67.10;5.00;;;26.40;1.00;;;;;;5039765;28;20377;-83
2022/08/15 09:56:44;;;;;;;69.77;6.10;;;26.30;1.00;;;;;;5039358;28;20427;-83
2022/08/15 09:59:23;;;;;;;67.70;5.87;;;26.10;1.00;;;;;;5039168;28;20486;-82
2022/08/15 10:01:58;;;;;;;73.03;8.83;;;26.20;1.00;;;;;;5039419;28;20467;-83
2022/08/15 10:05:04;;;;;;;70.10;7.00;;;26.10;1.00;;;;;;5038415;28;20446;-82
2022/08/15 10:08:06;;;;;;;66.97;5.90;;;26.20;1.00;;;;;;5037548;28;20450;-82
2022/08/15 10:10:34;;;;;;;69.50;6.40;;;26.00;1.00;;;;;;5038974;28;20376;-83
2022/08/15 10:13:28;;;;;;;69.33;6.30;;;26.10;1.00;;;;;;5039577;28;20407;-83
2022/08/15 10:15:55;;;;;;;68.00;5.93;;;26.10;1.00;;;;;;5040511;28;20434;-83
2022/08/15 10:18:46;;;;;;;68.50;6.43;;;25.90;1.00;;;;;;5040771;28;20412;-83
2022/08/15 10:21:21;;;;;;;67.87;5.27;;;25.70;1.00;;;;;;5041230;28;20400;-83
2022/08/15 10:23:53;;;;;;;67.23;6.03;;;25.70;1.00;;;;;;5043289;28;20431;-83
2022/08/15 10:26:18;;;;;;;68.27;6.07;;;25.70;1.00;;;;;;5038703;28;20435;-84
2022/08/15 10:29:03;;;;;;;66.93;5.60;;;25.80;1.00;;;;;;5039207;28;20424;-83
2022/08/15 10:31:40;;;;;;;68.07;6.07;;;25.90;1.00;;;;;;5040923;28;20641;-83
2022/08/15 10:34:19;;;;;;;67.37;6.30;;;25.90;1.00;;;;;;5041998;28;20434;-82
2022/08/15 10:37:04;;;;;;;69.53;6.03;;;25.90;1.00;;;;;;5040801;28;20497;-82
2022/08/15 10:39:50;;;;;;;68.17;6.47;;;26.00;1.00;;;;;;5041981;28;20395;-83
2022/08/15 10:42:29;;;;;;;68.60;5.30;;;25.80;1.00;;;;;;5040598;28;20396;-79
2022/08/15 10:45:24;;;;;;;68.77;6.23;;;25.90;1.00;;;;;;5039785;28;20994;-80
2022/08/15 10:48:27;;;;;;;67.50;5.60;;;25.90;1.00;;;;;;5041552;28;20416;-80
2022/08/15 10:51:23;;;;;;;66.50;4.40;;;25.60;1.00;;;;;;5040420;28;20396;-82
2022/08/15 10:54:13;;;;;;;66.90;5.00;;;25.50;1.00;;;;;;5040651;28;20484;-81
2022/08/15 10:56:42;;;;;;;66.57;6.07;;;25.40;1.00;;;;;;5039879;28;20791;-81
2022/08/15 10:59:18;;;;;;;68.80;7.93;;;25.30;1.00;;;;;;5039924;28;20456;-82
2022/08/15 11:01:45;;;;;;;66.47;6.00;;;25.10;18.40;;;;;;5041623;28;20381;-82
2022/08/15 11:04:34;;;;;;;66.10;5.53;;;24.90;30.30;;;;;;5039495;28;20549;-82
2022/08/15 11:07:03;;;;;;;66.90;6.17;;;24.70;39.50;;;;;;5040044;28;20772;-82
2022/08/15 11:09:29;;;;;;;66.17;5.50;;;24.50;53.00;;;;;;5041499;28;20422;-82
2022/08/15 11:12:05;;;;;;;68.00;5.70;;;24.30;60.50;;;;;;5040985;28;20915;-81
2022/08/15 11:14:38;;;;;;;68.07;5.00;;;24.30;68.70;;;;;;5040847;28;20393;-82
2022/08/15 11:17:14;;;;;;;68.67;6.00;;;24.20;90.40;;;;;;5039402;28;20462;-81
2022/08/15 11:19:44;;;;;;;70.17;6.30;;;24.10;82.70;;;;;;5041070;28;20386;-81
2022/08/15 11:22:19;;;;;;;68.80;7.07;;;24.20;90.60;;;;;;5040347;28;20391;-82
2022/08/15 11:25:00;;;;;;;69.07;7.20;;;24.10;93.40;;;;;;5040714;28;20439;-82
2022/08/15 11:27:28;;;;;;;68.70;9.50;;;24.10;92.70;;;;;;5038039;28;20458;-81
2022/08/15 11:29:57;;;;;;;69.80;8.50;;;24.20;94.10;;;;;;5039204;28;20406;-82
2022/08/15 11:32:24;;;;;;;73.57;14.93;;;24.20;94.50;;;;;;5040329;28;20404;-82
2022/08/15 11:34:51;;;;;;;67.10;6.70;;;24.00;99.60;;;;;;5039839;28;20407;-82
2022/08/15 11:37:25;;;;;;;67.33;8.30;;;24.10;93.10;;;;;;5040419;28;20425;-82
2022/08/15 11:40:26;;;;;;;68.30;6.43;;;24.10;94.70;;;;;;5040144;28;20404;-82
2022/08/15 11:42:53;;;;;;;68.73;8.07;;;24.00;89.30;;;;;;5038736;28;20452;-82
2022/08/15 11:45:24;;;;;;;70.10;10.30;;;24.00;93.90;;;;;;5040144;28;20402;-82
2022/08/15 11:47:54;;;;;;;67.07;6.97;;;23.90;98.20;;;;;;5041333;28;20418;-84
2022/08/15 11:50:33;;;;;;;81.97;29.52;;;23.80;94.30;;;;;;5040076;28;20445;-82
2022/08/15 11:53:04;;;;;;;68.67;10.50;;;23.90;96.70;;;;;;5038708;28;20170;-82
2022/08/15 11:55:30;;;;;;;67.97;7.83;;;24.00;98.10;;;;;;5040417;28;20411;-82
2022/08/15 11:58:11;;;;;;;67.03;8.23;;;24.00;95.90;;;;;;5039112;28;20512;-82
2022/08/15 12:00:49;;;;;;;65.70;6.93;;;24.10;97.20;;;;;;5040559;28;20314;-82
2022/08/15 12:03:32;;;;;;;67.17;6.40;;;24.20;94.70;;;;;;5039916;28;20484;-82
2022/08/15 12:06:30;;;;;;;69.73;7.20;;;24.20;95.40;;;;;;5039775;28;20932;-82
2022/08/15 12:09:33;;;;;;;68.80;8.47;;;24.10;96.20;;;;;;5039499;28;20815;-82
2022/08/15 12:12:00;;;;;;;69.13;10.40;;;24.20;94.90;;;;;;5035868;28;20440;-81
2022/08/15 12:14:28;;;;;;;68.50;8.63;;;24.20;97.80;;;;;;5038462;28;20423;-82
2022/08/15 12:17:05;;;;;;;69.40;8.03;;;24.20;97.30;;;;;;5040204;28;20836;-82
2022/08/15 12:19:37;;;;;;;68.30;7.57;;;24.30;94.90;;;;;;5040062;28;20425;-82
2022/08/15 12:22:14;;;;;;;66.77;5.80;;;24.40;92.60;;;;;;5038899;28;20952;-83
2022/08/15 12:24:46;;;;;;;67.23;7.03;;;24.40;90.50;;;;;;5040188;28;20449;-82
2022/08/15 12:27:12;;;;;;;68.10;9.10;;;24.30;95.20;;;;;;5041095;28;20443;-82
2022/08/15 12:29:38;;;;;;;67.33;8.80;;;24.40;93.10;;;;;;5042272;28;20409;-82
2022/08/15 12:32:07;;;;;;;66.27;6.20;;;24.60;95.20;;;;;;5041807;28;20402;-82
2022/08/15 12:34:39;;;;;;;68.67;6.00;;;24.80;86.50;;;;;;5040438;28;20417;-82
2022/08/15 12:37:09;;;;;;;67.90;6.67;;;24.90;88.80;;;;;;5040377;28;20417;-82
2022/08/15 12:39:59;;;;;;;68.40;5.73;;;25.20;86.10;;;;;;5038981;28;20407;-82
2022/08/15 12:42:29;;;;;;;67.77;5.60;;;25.20;69.80;;;;;;5038257;28;20418;-83
2022/08/15 12:45:00;;;;;;;69.67;6.60;;;25.30;65.60;;;;;;5038392;28;20991;-82
2022/08/15 12:47:30;;;;;;;69.00;5.60;;;25.50;66.60;;;;;;5039450;28;20415;-82
2022/08/15 12:49:56;;;;;;;66.60;5.80;;;25.60;56.10;;;;;;5039967;28;20429;-82
2022/08/15 12:52:22;;;;;;;69.60;6.47;;;25.80;57.40;;;;;;5040486;28;20717;-82
2022/08/15 12:54:51;;;;;;;68.83;6.50;;;26.00;51.80;;;;;;5038919;28;20467;-82
2022/08/15 12:57:17;;;;;;;68.40;7.67;;;26.00;54.20;;;;;;5039563;28;20188;-82
2022/08/15 12:59:43;;;;;;;68.93;5.80;;;26.20;46.40;;;;;;5040477;28;20396;-83
2022/08/15 13:02:11;;;;;;;68.17;4.87;;;26.10;34.30;;;;;;5037983;28;20404;-83
2022/08/15 13:04:39;;;;;;;67.80;5.00;;;25.80;30.00;;;;;;5039287;28;20542;-82
2022/08/15 13:07:05;;;;;;;67.57;4.33;;;25.80;36.30;;;;;;5038383;28;20943;-82
2022/08/15 13:09:32;;;;;;;71.00;4.90;;;25.90;33.80;;;;;;5038529;28;20400;-82
2022/08/15 13:12:03;;;;;;;68.83;5.67;;;26.20;33.00;;;;;;5040373;28;20150;-82
2022/08/15 13:14:29;;;;;;;67.97;4.63;;;26.30;30.00;;;;;;5038023;28;20384;-82
2022/08/15 13:16:56;;;;;;;67.90;5.17;;;26.70;28.90;;;;;;5037448;28;20430;-82
2022/08/15 13:19:26;;;;;;;67.30;5.00;;;27.20;12.30;;;;;;5037824;28;20928;-82
2022/08/15 13:24:38;;;;;;;69.93;4.40;;;27.90;1.40;;;;;;5038936;28;20510;-82
2022/08/15 13:27:05;;;;;;;68.80;5.40;;;28.30;1.00;;;;;;4994460;28;1223979;-82
2022/08/15 13:29:32;;;;;;;68.90;6.87;;;28.50;1.00;;;;;;5039608;28;20565;-82
2022/08/15 13:31:59;;;;;;;68.20;6.33;;;28.80;1.00;;;;;;5038205;28;20423;-82